createdAt,value
2023-02-27T00:05:06.080Z,1.60
2023-02-27T00:23:44.055Z,1.10
2023-02-27T01:01:00.380Z,1.90
2023-02-27T01:38:16.813Z,2.10
2023-02-27T01:56:51.964Z,3.00
2023-02-27T02:34:08.023Z,1.40
2023-02-27T02:52:47.264Z,1.90
2023-02-27T03:11:24.083Z,1.20
2023-02-27T03:48:38.403Z,1.00
2023-02-27T04:07:17.066Z,2.40
2023-02-27T04:25:56.959Z,2.80
2023-02-27T04:44:30.955Z,2.30
2023-02-27T05:03:09.446Z,2.00
2023-02-27T05:21:46.556Z,2.80
2023-02-27T05:59:02.228Z,2.40
2023-02-27T06:17:39.344Z,2.90
2023-02-27T07:32:17.433Z,4.00
2023-02-27T07:50:57.291Z,2.40
2023-02-27T08:09:37.663Z,2.00
2023-02-27T08:46:57.788Z,1.50
2023-02-27T09:05:37.890Z,2.00
2023-02-27T09:24:20.713Z,2.50
2023-02-27T09:42:58.797Z,1.70
2023-02-27T10:20:21.642Z,2.80
2023-02-27T10:38:55.072Z,2.30
2023-02-27T11:53:39.904Z,3.20
2023-02-27T12:12:18.076Z,3.10
2023-02-27T12:49:37.418Z,2.50
2023-02-27T13:08:20.618Z,2.50
2023-02-27T13:27:01.246Z,2.50
2023-02-27T13:45:36.949Z,3.00
2023-02-27T14:04:14.836Z,2.20
2023-02-27T14:22:57.330Z,2.90
2023-02-27T14:41:34.144Z,2.30
2023-02-27T15:00:09.330Z,3.30
2023-02-27T15:18:40.638Z,3.10
2023-02-27T15:37:17.303Z,3.70
2023-02-27T15:55:51.660Z,2.30
2023-02-27T16:33:04.034Z,3.90
2023-02-27T16:51:44.297Z,3.50
2023-02-27T17:10:17.255Z,4.40
2023-02-27T17:28:54.873Z,5.30
2023-02-27T17:47:33.475Z,4.00
2023-02-27T18:06:11.368Z,6.60
2023-02-27T18:24:47.420Z,3.80
2023-02-27T18:43:26.008Z,3.70
2023-02-27T19:02:03.050Z,3.50
2023-02-27T19:20:41.329Z,4.90
2023-02-27T19:39:18.352Z,3.30
2023-02-27T19:58:00.550Z,4.90
2023-02-27T20:16:31.457Z,3.80
2023-02-27T20:35:12.509Z,5.30
2023-02-27T20:53:46.235Z,4.60
2023-02-27T21:12:24.027Z,5.80
2023-02-27T21:49:40.014Z,5.50
2023-02-27T22:08:17.032Z,3.80
2023-02-27T22:26:54.029Z,7.70
2023-02-27T22:45:31.299Z,5.80
2023-02-27T23:04:09.965Z,5.70
2023-02-27T23:22:48.254Z,7.10
2023-02-27T23:41:27.060Z,7.70
